createdAt,value
2022-09-07T00:01:00.679Z,101179.47
2022-09-07T00:08:02.630Z,101173.66
2022-09-07T00:15:08.245Z,101151.88
2022-09-07T00:22:09.903Z,101140.19
2022-09-07T00:29:11.637Z,101132.28
2022-09-07T00:36:13.410Z,101140.25
2022-09-07T00:43:17.471Z,101142.97
2022-09-07T00:50:26.363Z,101140.78
2022-09-07T00:57:28.210Z,101144.03
2022-09-07T01:04:30.220Z,101137.69
2022-09-07T01:11:33.831Z,101131.88
2022-09-07T01:19:07.313Z,101125.09
2022-09-07T01:26:27.496Z,101122.25
2022-09-07T01:33:43.472Z,101134.09
2022-09-07T01:40:59.646Z,101140.03
2022-09-07T01:48:04.654Z,101131.25
2022-09-07T01:55:13.612Z,101123.97
2022-09-07T02:02:17.987Z,101120.09
2022-09-07T02:09:30.743Z,101108.22
2022-09-07T02:16:33.457Z,101114.44
2022-09-07T02:23:47.647Z,101110.31
2022-09-07T02:30:49.287Z,101113.53
2022-09-07T02:37:50.962Z,101101.38
2022-09-07T02:44:52.655Z,101108.22
2022-09-07T02:52:06.376Z,101113.41
2022-09-07T02:59:14.256Z,101098.06
2022-09-07T03:06:28.533Z,101098.28
2022-09-07T03:13:30.350Z,101094.94
2022-09-07T03:20:31.984Z,101089.00
2022-09-07T03:27:33.637Z,101096.91
2022-09-07T03:34:36.239Z,101111.88
2022-09-07T03:41:37.826Z,101099.72
2022-09-07T03:48:39.487Z,101085.63
2022-09-07T03:55:41.148Z,101076.09
2022-09-07T04:02:42.909Z,101053.72
2022-09-07T04:09:45.438Z,101068.03
2022-09-07T04:16:48.878Z,101052.19
2022-09-07T04:23:51.678Z,101043.72
2022-09-07T04:30:54.827Z,101049.00
2022-09-07T04:37:56.938Z,101053.06
2022-09-07T04:44:58.586Z,101050.22
2022-09-07T04:52:00.361Z,101057.63
2022-09-07T04:59:02.269Z,101055.38
2022-09-07T05:06:04.766Z,101051.56
2022-09-07T05:13:06.432Z,101043.78
2022-09-07T05:20:08.332Z,101047.47
2022-09-07T05:27:10.041Z,101045.38
2022-09-07T05:41:33.349Z,101039.94
2022-09-07T05:48:35.138Z,101038.97
2022-09-07T05:55:36.752Z,101032.13
2022-09-07T06:02:39.875Z,101044.28
2022-09-07T06:17:03.401Z,101041.69
2022-09-07T06:24:05.665Z,101047.31
2022-09-07T06:31:11.192Z,101050.19
2022-09-07T06:38:12.940Z,101038.78
2022-09-07T06:45:14.556Z,101032.88
2022-09-07T06:52:16.297Z,101048.31
2022-09-07T06:59:18.008Z,101049.00
2022-09-07T07:06:19.998Z,101028.56
2022-09-07T07:20:22.177Z,101005.72
2022-09-07T07:27:23.862Z,101005.09
2022-09-07T07:34:25.807Z,100992.91
2022-09-07T07:48:51.941Z,101008.13
2022-09-07T07:55:53.625Z,100998.88
2022-09-07T08:02:55.421Z,100995.09
2022-09-07T08:09:56.970Z,100985.16
2022-09-07T08:16:58.553Z,100988.13
2022-09-07T08:24:00.200Z,100991.78
2022-09-07T08:31:10.649Z,100996.75
2022-09-07T08:38:12.413Z,100993.47
2022-09-07T08:45:16.113Z,100995.19
2022-09-07T08:52:26.346Z,100981.00
2022-09-07T08:59:31.411Z,100965.03
2022-09-07T09:06:48.318Z,100953.34
2022-09-07T09:14:03.660Z,100954.44
2022-09-07T09:21:07.865Z,100940.09
2022-09-07T09:28:12.562Z,100939.31
2022-09-07T09:35:26.336Z,100953.13
2022-09-07T09:42:27.920Z,100940.91
2022-09-07T09:49:34.833Z,100924.22
2022-09-07T09:56:41.494Z,100918.53
2022-09-07T10:04:00.898Z,100922.75
2022-09-07T10:11:09.647Z,100908.13
2022-09-07T10:18:56.476Z,100905.81
2022-09-07T10:25:58.074Z,100890.22
2022-09-07T10:33:04.350Z,100894.47
2022-09-07T10:40:30.019Z,100872.53
2022-09-07T10:47:50.547Z,100890.06
2022-09-07T10:54:56.821Z,100887.09
2022-09-07T11:02:16.961Z,100886.97
2022-09-07T11:09:43.398Z,100876.41
2022-09-07T11:16:52.908Z,100863.00
2022-09-07T11:24:11.159Z,100871.47
2022-09-07T11:31:35.918Z,100870.97
2022-09-07T11:38:44.855Z,100872.19
2022-09-07T11:45:53.657Z,100882.25
2022-09-07T11:53:19.425Z,100865.88
2022-09-07T12:00:27.621Z,100859.78
2022-09-07T12:08:04.613Z,100871.25
2022-09-07T12:15:25.818Z,100858.00
2022-09-07T12:22:27.413Z,100847.44
2022-09-07T12:29:29.336Z,100845.28
2022-09-07T12:36:30.818Z,100846.66
2022-09-07T12:43:42.597Z,100847.22
2022-09-07T12:51:06.111Z,100836.28
2022-09-07T12:58:17.221Z,100828.44
2022-09-07T13:05:30.826Z,100817.16
2022-09-07T13:19:55.629Z,100808.13
2022-09-07T13:27:05.865Z,100804.69
2022-09-07T13:34:31.387Z,100808.63
2022-09-07T13:41:37.194Z,100798.38
2022-09-07T13:48:42.076Z,100788.09
2022-09-07T13:55:43.647Z,100788.59
2022-09-07T14:02:45.331Z,100783.34
2022-09-07T14:09:49.944Z,100784.84
2022-09-07T14:17:04.554Z,100781.75
2022-09-07T14:24:22.698Z,100790.22
2022-09-07T14:31:24.881Z,100775.34
2022-09-07T14:45:52.722Z,100765.34
2022-09-07T15:00:21.154Z,100774.69
2022-09-07T15:07:29.839Z,100770.66
2022-09-07T15:14:31.297Z,100769.59
2022-09-07T15:21:33.649Z,100747.38
2022-09-07T15:35:57.502Z,100761.00
2022-09-07T15:43:02.070Z,100748.53
2022-09-07T15:50:07.348Z,100741.28
2022-09-07T16:04:30.737Z,100734.56
2022-09-07T16:11:35.205Z,100723.19
2022-09-07T16:18:37.616Z,100726.25
2022-09-07T16:25:39.582Z,100714.84
2022-09-07T16:32:44.788Z,100715.75
2022-09-07T16:39:46.643Z,100702.28
2022-09-07T16:46:48.461Z,100698.47
2022-09-07T16:53:51.146Z,100699.78
2022-09-07T17:00:52.803Z,100697.47
2022-09-07T17:07:54.769Z,100707.22
2022-09-07T17:14:56.344Z,100710.59
2022-09-07T17:21:59.633Z,100692.75
2022-09-07T17:29:01.393Z,100713.69
2022-09-07T17:36:05.083Z,100708.00
2022-09-07T17:50:28.244Z,100712.09
2022-09-07T17:57:31.562Z,100707.16
2022-09-07T18:04:35.628Z,100713.16
2022-09-07T18:11:46.409Z,100714.22
2022-09-07T18:18:49.192Z,100720.56
2022-09-07T18:25:57.992Z,100740.53
2022-09-07T18:32:59.870Z,100758.56
2022-09-07T18:40:01.848Z,100754.25
2022-09-07T18:47:03.596Z,100776.94
2022-09-07T18:54:05.229Z,100765.41
2022-09-07T19:01:08.192Z,100759.56
2022-09-07T19:08:09.830Z,100751.31
2022-09-07T19:15:11.402Z,100754.22
2022-09-07T19:22:13.051Z,100755.09
2022-09-07T19:29:17.917Z,100746.47
2022-09-07T19:36:19.473Z,100753.97
2022-09-07T19:43:21.047Z,100757.56
2022-09-07T19:50:22.647Z,100756.34
2022-09-07T19:57:24.307Z,100748.59
2022-09-07T20:04:25.936Z,100734.50
2022-09-07T20:11:28.561Z,100729.00
2022-09-07T20:18:30.168Z,100719.88
2022-09-07T20:25:31.717Z,100711.09
2022-09-07T20:32:33.881Z,100699.91
2022-09-07T20:39:39.130Z,100697.44
2022-09-07T20:46:41.326Z,100695.44
2022-09-07T20:53:43.079Z,100698.31
2022-09-07T21:00:50.511Z,100684.34
2022-09-07T21:07:54.116Z,100691.13
2022-09-07T21:14:55.872Z,100692.41
2022-09-07T21:21:57.452Z,100693.59
2022-09-07T21:29:03.686Z,100688.75
2022-09-07T21:36:05.816Z,100682.97
2022-09-07T21:43:07.373Z,100679.34
2022-09-07T21:50:08.967Z,100683.75
2022-09-07T21:57:10.754Z,100681.09
2022-09-07T22:04:12.376Z,100687.38
2022-09-07T22:11:16.491Z,100683.25
2022-09-07T22:18:18.069Z,100682.53
2022-09-07T22:25:19.647Z,100696.19
2022-09-07T22:32:21.266Z,100691.94
2022-09-07T22:39:22.825Z,100685.53
2022-09-07T22:46:26.059Z,100683.66
2022-09-07T22:53:29.011Z,100690.41
2022-09-07T23:00:30.661Z,100671.38
2022-09-07T23:07:32.237Z,100660.81
2022-09-07T23:14:33.917Z,100662.59
2022-09-07T23:21:35.472Z,100645.91
2022-09-07T23:28:37.046Z,100644.34
2022-09-07T23:35:38.607Z,100644.09
2022-09-07T23:42:40.154Z,100641.25
2022-09-07T23:49:41.785Z,100631.97
2022-09-07T23:56:43.371Z,100630.84
